MST,Max TemperatureF,Mean TemperatureF,Min TemperatureF,Max Dew PointF,MeanDew PointF,Min DewpointF,Max Humidity, Mean Humidity, Min Humidity, Max Sea Level PressureIn, Mean Sea Level PressureIn, Min Sea Level PressureIn, Max VisibilityMiles, Mean VisibilityMiles, Min VisibilityMiles, Max Wind SpeedMPH, Mean Wind SpeedMPH, Max Gust SpeedMPH,PrecipitationIn, CloudCover, Events, WindDirDegrees
2012-11-1,82,63,44,29,26,23,43,27,12,30.11,29.94,29.85,10,10,10,18,4,24,0.00,0,,147
2012-11-2,78,62,45,39,33,28,57,37,19,29.95,29.89,29.83,10,10,10,16,4,25,0.00,0,,148
2012-11-3,77,61,45,43,38,36,74,46,23,30.02,29.97,29.92,10,10,10,10,3,16,0.00,1,,147
2012-11-4,82,64,45,36,31,25,65,35,14,30.07,30.02,29.95,10,10,10,9,3,,0.00,0,,153
2012-11-5,84,65,46,29,24,19,46,26,9,30.09,30.03,29.96,10,10,10,7,3,,0.00,0,,106
2012-11-6,86,65,44,23,22,20,40,22,9,30.10,30.02,29.96,10,10,10,7,3,,0.00,0,,55
2012-11-7,86,66,46,30,26,22,40,25,12,30.07,29.96,29.88,10,10,10,13,3,20,0.00,0,,148
2012-11-8,81,68,55,46,34,27,60,34,14,30.08,29.90,29.83,10,10,10,16,4,24,0.00,3,Rain,180
2012-11-9,73,64,55,52,48,44,89,61,38,30.05,29.83,29.71,10,10,9,24,10,32,0.00,4,Rain-Thunderstorm,194
2012-11-10,57,50,42,49,36,17,92,62,22,30.03,29.91,29.73,10,9,2,16,11,25,0.00,5,Rain,253
2012-11-11,59,44,28,28,15,1,82,41,10,30.22,30.14,30.03,10,10,10,13,4,16,0.00,0,,21
2012-11-12,68,49,30,15,12,9,52,27,10,30.21,30.12,30.04,10,10,10,8,4,,0.00,0,,61
2012-11-13,77,56,35,15,11,4,42,21,6,30.16,30.05,29.94,10,10,10,9,5,,0.00,0,,74
2012-11-14,78,58,39,21,13,7,32,20,7,30.11,30.03,29.95,10,10,10,10,5,,0.00,0,,111
2012-11-15,75,57,39,25,22,15,47,26,10,30.09,30.03,29.99,10,10,10,8,3,,0.00,1,,127
2012-11-16,73,63,52,28,24,19,37,25,13,30.06,30.02,29.97,10,10,10,7,4,,0.00,1,,115
2012-11-17,75,62,50,52,38,25,89,47,26,30.10,30.03,29.97,10,10,8,14,5,,0.00,6,Rain,125
2012-11-18,71,60,50,52,46,41,89,67,36,30.20,30.05,29.99,10,10,10,13,5,,0.00,2,Rain,136
2012-11-19,71,58,46,46,39,31,86,57,24,30.22,30.11,30.06,10,10,10,9,2,,0.00,0,,69
2012-11-20,73,58,42,40,36,33,76,49,23,30.12,30.04,29.97,10,10,10,6,2,,0.00,0,,86
2012-11-21,80,66,50,40,34,26,61,40,15,30.02,29.96,29.91,10,10,10,9,4,17,0.00,1,,106
2012-11-22,79,61,43,32,28,24,60,35,14,30.08,30.02,29.96,10,10,10,10,2,,0.00,0,,48
2012-11-23,80,62,44,32,27,16,44,28,14,30.16,30.09,30.04,10,10,10,14,4,22,0.00,0,,87
2012-11-24,80,63,46,32,30,28,48,32,16,30.10,30.00,29.90,10,10,10,7,4,,0.00,0,,65
2012-11-25,78,60,42,32,24,15,62,32,11,29.97,29.90,29.83,10,10,10,21,4,28,0.00,0,,170
2012-11-26,73,56,39,25,22,14,50,31,11,30.08,29.99,29.90,10,10,10,9,3,,0.00,0,,95
2012-11-27,75,57,39,29,27,24,53,36,16,30.22,30.15,30.08,10,10,10,12,3,18,0.00,0,,129
2012-11-28,73,57,41,34,31,29,62,41,22,30.22,30.11,30.04,10,10,10,12,4,,0.00,0,,129
2012-11-29,75,57,39,36,29,15,76,43,11,30.24,30.11,30.03,10,10,10,8,2,,0.00,0,,2
2012-11-30,75,56,37,31,29,27,65,42,18,30.15,30.07,29.98,10,10,10,8,2,,0.00,0,,51